Terminal Aerodrome Forecast
Issued by NWS

Home | Current Version | Previous Version | Text Only | Print | Product List | Glossary On
Versions: 1 2 3 4 5 6 7 8 9 10 11 12 13 14 15
000
FTUS43 KFGF 271700
TAFTVF
TAF
KTVF 271720Z 2718/2818 24007KT P6SM BKN250
     FM280300 34010KT P6SM BKN040
     FM281300 35005KT P6SM FEW050
      AMD LTD TO CLD VIS AND WIND=

USA.gov is the U.S. government's official web portal to all federal, state and local government web resources and services.